sensor_id;sensor_type;location;lat;lon;timestamp;temperature;humidity
51619;DHT22;38518;53.164;5.430;2022-09-12T00:01:10;14.60;1.00
51619;DHT22;38518;53.164;5.430;2022-09-12T00:03:37;14.60;1.00
51619;DHT22;38518;53.164;5.430;2022-09-12T00:06:12;14.60;1.00
51619;DHT22;38518;53.164;5.430;2022-09-12T00:08:39;14.50;1.00
51619;DHT22;38518;53.164;5.430;2022-09-12T00:11:09;14.40;1.00
51619;DHT22;38518;53.164;5.430;2022-09-12T00:13:38;14.40;1.00
51619;DHT22;38518;53.164;5.430;2022-09-12T00:16:04;14.40;1.00
51619;DHT22;38518;53.164;5.430;2022-09-12T00:18:31;14.40;1.00
51619;DHT22;38518;53.164;5.430;2022-09-12T00:21:01;14.30;1.00
51619;DHT22;38518;53.164;5.430;2022-09-12T00:23:27;14.30;1.00
51619;DHT22;38518;53.164;5.430;2022-09-12T00:25:52;14.30;1.00
51619;DHT22;38518;53.164;5.430;2022-09-12T00:28:18;14.30;1.00
51619;DHT22;38518;53.164;5.430;2022-09-12T00:30:46;14.20;1.00
51619;DHT22;38518;53.164;5.430;2022-09-12T00:33:13;14.20;1.00
51619;DHT22;38518;53.164;5.430;2022-09-12T00:35:44;14.20;1.00
51619;DHT22;38518;53.164;5.430;2022-09-12T00:38:11;14.20;1.00
51619;DHT22;38518;53.164;5.430;2022-09-12T00:40:38;14.20;1.00
51619;DHT22;38518;53.164;5.430;2022-09-12T00:43:04;14.20;1.00
51619;DHT22;38518;53.164;5.430;2022-09-12T00:45:30;14.20;1.00
51619;DHT22;38518;53.164;5.430;2022-09-12T00:48:00;14.20;1.00
51619;DHT22;38518;53.164;5.430;2022-09-12T00:50:28;14.20;1.00
51619;DHT22;38518;53.164;5.430;2022-09-12T00:53:03;14.10;1.00
51619;DHT22;38518;53.164;5.430;2022-09-12T00:55:34;14.10;1.00
51619;DHT22;38518;53.164;5.430;2022-09-12T00:58:11;14.10;1.00
51619;DHT22;38518;53.164;5.430;2022-09-12T01:00:39;14.20;1.00
51619;DHT22;38518;53.164;5.430;2022-09-12T01:03:08;14.10;1.00
51619;DHT22;38518;53.164;5.430;2022-09-12T01:05:37;14.10;1.00
51619;DHT22;38518;53.164;5.430;2022-09-12T01:08:05;14.10;1.00
51619;DHT22;38518;53.164;5.430;2022-09-12T01:10:33;14.00;1.00
51619;DHT22;38518;53.164;5.430;2022-09-12T01:13:00;14.00;1.00
51619;DHT22;38518;53.164;5.430;2022-09-12T01:15:26;14.60;1.00
51619;DHT22;38518;53.164;5.430;2022-09-12T01:18:02;13.90;1.00
51619;DHT22;38518;53.164;5.430;2022-09-12T01:21:05;13.90;1.00
51619;DHT22;38518;53.164;5.430;2022-09-12T01:31:51;13.90;1.00
51619;DHT22;38518;53.164;5.430;2022-09-12T01:34:24;13.90;1.00
51619;DHT22;38518;53.164;5.430;2022-09-12T01:37:16;13.90;1.00
51619;DHT22;38518;53.164;5.430;2022-09-12T01:45:41;13.80;1.00
51619;DHT22;38518;53.164;5.430;2022-09-12T01:48:21;13.80;1.00
51619;DHT22;38518;53.164;5.430;2022-09-12T01:50:55;13.80;1.00
51619;DHT22;38518;53.164;5.430;2022-09-12T01:53:52;13.80;1.00
51619;DHT22;38518;53.164;5.430;2022-09-12T01:56:20;13.80;1.00
51619;DHT22;38518;53.164;5.430;2022-09-12T01:59:13;13.80;1.00
51619;DHT22;38518;53.164;5.430;2022-09-12T02:01:47;13.80;1.00
51619;DHT22;38518;53.164;5.430;2022-09-12T02:04:18;13.80;1.00
51619;DHT22;38518;53.164;5.430;2022-09-12T02:06:49;13.80;1.00
51619;DHT22;38518;53.164;5.430;2022-09-12T02:09:25;13.70;1.00
51619;DHT22;38518;53.164;5.430;2022-09-12T02:11:56;13.80;1.00
51619;DHT22;38518;53.164;5.430;2022-09-12T02:14:39;13.70;1.00
51619;DHT22;38518;53.164;5.430;2022-09-12T02:17:11;13.70;1.00
51619;DHT22;38518;53.164;5.430;2022-09-12T02:19:54;13.70;1.00
51619;DHT22;38518;53.164;5.430;2022-09-12T02:22:24;13.70;1.00
51619;DHT22;38518;53.164;5.430;2022-09-12T02:24:54;13.70;1.00
51619;DHT22;38518;53.164;5.430;2022-09-12T02:27:40;13.70;1.00
51619;DHT22;38518;53.164;5.430;2022-09-12T02:30:08;13.70;1.00
51619;DHT22;38518;53.164;5.430;2022-09-12T02:32:48;13.60;1.00
51619;DHT22;38518;53.164;5.430;2022-09-12T02:38:32;13.70;1.00
51619;DHT22;38518;53.164;5.430;2022-09-12T02:41:00;13.80;1.00
51619;DHT22;38518;53.164;5.430;2022-09-12T02:43:25;12.60;1.00
51619;DHT22;38518;53.164;5.430;2022-09-12T02:45:52;13.70;1.00
51619;DHT22;38518;53.164;5.430;2022-09-12T02:48:31;13.80;1.00
51619;DHT22;38518;53.164;5.430;2022-09-12T02:50:58;13.70;1.00
51619;DHT22;38518;53.164;5.430;2022-09-12T02:53:25;13.70;1.00
51619;DHT22;38518;53.164;5.430;2022-09-12T02:55:51;13.70;1.00
51619;DHT22;38518;53.164;5.430;2022-09-12T02:58:21;13.80;1.00
51619;DHT22;38518;53.164;5.430;2022-09-12T03:06:32;13.90;1.00
51619;DHT22;38518;53.164;5.430;2022-09-12T03:12:12;13.90;1.00
51619;DHT22;38518;53.164;5.430;2022-09-12T03:23:18;14.00;7.30
51619;DHT22;38518;53.164;5.430;2022-09-12T03:26:11;14.10;25.80
51619;DHT22;38518;53.164;5.430;2022-09-12T03:28:38;14.10;72.40
51619;DHT22;38518;53.164;5.430;2022-09-12T03:31:18;14.20;86.20
51619;DHT22;38518;53.164;5.430;2022-09-12T03:33:44;14.20;93.10
51619;DHT22;38518;53.164;5.430;2022-09-12T03:36:23;14.50;99.90
51619;DHT22;38518;53.164;5.430;2022-09-12T03:38:49;14.30;99.90
51619;DHT22;38518;53.164;5.430;2022-09-12T03:41:15;14.40;99.90
51619;DHT22;38518;53.164;5.430;2022-09-12T03:43:41;14.50;99.90
51619;DHT22;38518;53.164;5.430;2022-09-12T03:46:06;14.50;99.90
51619;DHT22;38518;53.164;5.430;2022-09-12T03:48:32;14.90;99.90
51619;DHT22;38518;53.164;5.430;2022-09-12T03:51:03;14.60;99.90
51619;DHT22;38518;53.164;5.430;2022-09-12T03:53:29;14.70;99.90
51619;DHT22;38518;53.164;5.430;2022-09-12T03:55:56;14.70;99.90
51619;DHT22;38518;53.164;5.430;2022-09-12T03:58:22;14.80;99.90
51619;DHT22;38518;53.164;5.430;2022-09-12T04:00:48;14.80;99.90
51619;DHT22;38518;53.164;5.430;2022-09-12T04:03:14;14.80;99.90
51619;DHT22;38518;53.164;5.430;2022-09-12T04:05:40;14.90;99.90
51619;DHT22;38518;53.164;5.430;2022-09-12T04:08:06;15.00;99.90
51619;DHT22;38518;53.164;5.430;2022-09-12T04:10:31;15.00;99.90
51619;DHT22;38518;53.164;5.430;2022-09-12T04:12:57;15.10;99.90
51619;DHT22;38518;53.164;5.430;2022-09-12T04:15:23;15.10;99.90
51619;DHT22;38518;53.164;5.430;2022-09-12T04:17:48;15.10;99.90
51619;DHT22;38518;53.164;5.430;2022-09-12T04:20:14;15.20;99.90
51619;DHT22;38518;53.164;5.430;2022-09-12T04:22:40;15.20;99.90
51619;DHT22;38518;53.164;5.430;2022-09-12T04:25:06;15.10;99.90
51619;DHT22;38518;53.164;5.430;2022-09-12T04:27:32;14.50;99.90
51619;DHT22;38518;53.164;5.430;2022-09-12T04:29:59;15.20;99.90
51619;DHT22;38518;53.164;5.430;2022-09-12T04:32:29;15.20;99.90
51619;DHT22;38518;53.164;5.430;2022-09-12T04:34:55;15.20;99.90
51619;DHT22;38518;53.164;5.430;2022-09-12T04:37:21;15.30;99.90
51619;DHT22;38518;53.164;5.430;2022-09-12T04:39:48;15.30;99.90
51619;DHT22;38518;53.164;5.430;2022-09-12T04:42:15;15.30;99.90
51619;DHT22;38518;53.164;5.430;2022-09-12T04:44:40;15.30;99.90
51619;DHT22;38518;53.164;5.430;2022-09-12T04:47:06;15.30;99.90
51619;DHT22;38518;53.164;5.430;2022-09-12T04:49:32;15.30;99.90
51619;DHT22;38518;53.164;5.430;2022-09-12T04:51:58;15.40;99.90
51619;DHT22;38518;53.164;5.430;2022-09-12T04:54:25;15.40;99.90
51619;DHT22;38518;53.164;5.430;2022-09-12T04:56:51;15.40;99.90
51619;DHT22;38518;53.164;5.430;2022-09-12T04:59:19;15.40;99.90
51619;DHT22;38518;53.164;5.430;2022-09-12T05:01:45;15.40;99.90
51619;DHT22;38518;53.164;5.430;2022-09-12T05:04:12;15.50;99.90
51619;DHT22;38518;53.164;5.430;2022-09-12T05:06:38;15.50;99.90
51619;DHT22;38518;53.164;5.430;2022-09-12T05:09:07;15.50;99.90
51619;DHT22;38518;53.164;5.430;2022-09-12T05:11:35;15.50;99.90
51619;DHT22;38518;53.164;5.430;2022-09-12T05:14:02;15.50;99.90
51619;DHT22;38518;53.164;5.430;2022-09-12T05:16:28;15.50;99.90
51619;DHT22;38518;53.164;5.430;2022-09-12T05:18:56;15.50;99.90
51619;DHT22;38518;53.164;5.430;2022-09-12T05:21:23;15.50;99.90
51619;DHT22;38518;53.164;5.430;2022-09-12T05:23:53;15.50;99.90
51619;DHT22;38518;53.164;5.430;2022-09-12T05:26:20;15.50;99.90
51619;DHT22;38518;53.164;5.430;2022-09-12T05:28:48;15.50;99.90
51619;DHT22;38518;53.164;5.430;2022-09-12T05:31:20;15.50;99.90
51619;DHT22;38518;53.164;5.430;2022-09-12T05:33:48;15.50;99.90
51619;DHT22;38518;53.164;5.430;2022-09-12T05:36:25;15.50;99.90
51619;DHT22;38518;53.164;5.430;2022-09-12T05:38:52;15.50;99.90
51619;DHT22;38518;53.164;5.430;2022-09-12T05:41:19;15.60;99.90
51619;DHT22;38518;53.164;5.430;2022-09-12T05:43:46;15.60;99.90
51619;DHT22;38518;53.164;5.430;2022-09-12T05:48:41;15.60;99.90
51619;DHT22;38518;53.164;5.430;2022-09-12T05:51:21;15.60;99.90
51619;DHT22;38518;53.164;5.430;2022-09-12T05:53:50;15.60;99.90
51619;DHT22;38518;53.164;5.430;2022-09-12T05:56:19;15.70;99.90
51619;DHT22;38518;53.164;5.430;2022-09-12T05:58:46;15.70;99.90
51619;DHT22;38518;53.164;5.430;2022-09-12T06:01:17;15.80;99.90
51619;DHT22;38518;53.164;5.430;2022-09-12T06:03:44;15.80;99.90
51619;DHT22;38518;53.164;5.430;2022-09-12T06:06:12;15.80;99.90
51619;DHT22;38518;53.164;5.430;2022-09-12T06:08:42;15.80;99.90
51619;DHT22;38518;53.164;5.430;2022-09-12T06:11:11;15.90;99.90
51619;DHT22;38518;53.164;5.430;2022-09-12T06:13:38;15.90;99.90
51619;DHT22;38518;53.164;5.430;2022-09-12T06:16:11;16.00;99.90
51619;DHT22;38518;53.164;5.430;2022-09-12T06:18:38;16.00;99.90
51619;DHT22;38518;53.164;5.430;2022-09-12T06:21:09;16.00;99.90
51619;DHT22;38518;53.164;5.430;2022-09-12T06:23:36;16.00;99.90
51619;DHT22;38518;53.164;5.430;2022-09-12T06:26:03;16.00;99.90
51619;DHT22;38518;53.164;5.430;2022-09-12T06:28:31;16.10;99.90
51619;DHT22;38518;53.164;5.430;2022-09-12T06:31:06;15.90;99.90
51619;DHT22;38518;53.164;5.430;2022-09-12T06:33:33;16.10;99.90
51619;DHT22;38518;53.164;5.430;2022-09-12T06:36:08;16.10;99.90
51619;DHT22;38518;53.164;5.430;2022-09-12T06:38:34;16.20;99.90
51619;DHT22;38518;53.164;5.430;2022-09-12T06:49:50;16.30;99.90
51619;DHT22;38518;53.164;5.430;2022-09-12T06:52:16;16.30;99.90
51619;DHT22;38518;53.164;5.430;2022-09-12T06:54:42;16.40;99.90
51619;DHT22;38518;53.164;5.430;2022-09-12T06:57:08;16.40;99.90
51619;DHT22;38518;53.164;5.430;2022-09-12T06:59:33;16.50;99.90
51619;DHT22;38518;53.164;5.430;2022-09-12T07:01:59;16.50;99.90
51619;DHT22;38518;53.164;5.430;2022-09-12T07:04:26;16.70;99.90
51619;DHT22;38518;53.164;5.430;2022-09-12T07:06:52;16.70;99.90
51619;DHT22;38518;53.164;5.430;2022-09-12T07:09:17;16.80;99.90
51619;DHT22;38518;53.164;5.430;2022-09-12T07:11:44;16.90;99.90
51619;DHT22;38518;53.164;5.430;2022-09-12T07:14:12;17.00;99.90
51619;DHT22;38518;53.164;5.430;2022-09-12T07:16:38;17.20;99.90
51619;DHT22;38518;53.164;5.430;2022-09-12T07:19:06;17.40;99.90
51619;DHT22;38518;53.164;5.430;2022-09-12T07:21:32;18.10;72.50
51619;DHT22;38518;53.164;5.430;2022-09-12T07:24:01;17.60;62.60
51619;DHT22;38518;53.164;5.430;2022-09-12T07:26:28;17.70;44.60
51619;DHT22;38518;53.164;5.430;2022-09-12T07:28:55;17.80;23.40
51619;DHT22;38518;53.164;5.430;2022-09-12T07:31:23;17.90;11.40
51619;DHT22;38518;53.164;5.430;2022-09-12T07:33:50;18.00;1.00
51619;DHT22;38518;53.164;5.430;2022-09-12T07:36:18;18.10;1.00
51619;DHT22;38518;53.164;5.430;2022-09-12T07:38:44;18.30;1.00
51619;DHT22;38518;53.164;5.430;2022-09-12T07:43:37;18.50;1.00
51619;DHT22;38518;53.164;5.430;2022-09-12T07:46:03;18.00;1.00
51619;DHT22;38518;53.164;5.430;2022-09-12T07:48:29;18.60;1.00
51619;DHT22;38518;53.164;5.430;2022-09-12T07:51:03;18.80;1.00
51619;DHT22;38518;53.164;5.430;2022-09-12T07:53:30;18.80;1.00
51619;DHT22;38518;53.164;5.430;2022-09-12T07:55:56;18.80;1.00
51619;DHT22;38518;53.164;5.430;2022-09-12T07:58:23;18.80;1.00
51619;DHT22;38518;53.164;5.430;2022-09-12T08:03:56;18.90;99.90
51619;DHT22;38518;53.164;5.430;2022-09-12T08:06:23;18.90;99.90
51619;DHT22;38518;53.164;5.430;2022-09-12T08:08:49;19.00;1.00
51619;DHT22;38518;53.164;5.430;2022-09-12T08:11:17;19.20;1.00
51619;DHT22;38518;53.164;5.430;2022-09-12T08:13:44;19.40;1.00
51619;DHT22;38518;53.164;5.430;2022-09-12T08:16:15;19.50;99.90
51619;DHT22;38518;53.164;5.430;2022-09-12T08:18:42;19.60;99.90
51619;DHT22;38518;53.164;5.430;2022-09-12T08:21:14;19.70;99.90
51619;DHT22;38518;53.164;5.430;2022-09-12T08:23:41;20.20;99.90
51619;DHT22;38518;53.164;5.430;2022-09-12T08:26:08;20.00;99.90
51619;DHT22;38518;53.164;5.430;2022-09-12T08:28:35;20.20;99.90
51619;DHT22;38518;53.164;5.430;2022-09-12T08:31:12;20.20;99.90
51619;DHT22;38518;53.164;5.430;2022-09-12T08:33:38;20.20;99.90
51619;DHT22;38518;53.164;5.430;2022-09-12T08:36:18;20.30;99.90
51619;DHT22;38518;53.164;5.430;2022-09-12T08:38:47;20.50;99.90
51619;DHT22;38518;53.164;5.430;2022-09-12T08:43:47;20.90;99.90
51619;DHT22;38518;53.164;5.430;2022-09-12T08:48:55;21.60;99.90
51619;DHT22;38518;53.164;5.430;2022-09-12T08:51:22;21.70;99.90
51619;DHT22;38518;53.164;5.430;2022-09-12T08:53:50;22.10;99.90
51619;DHT22;38518;53.164;5.430;2022-09-12T08:56:20;22.60;99.90
51619;DHT22;38518;53.164;5.430;2022-09-12T08:58:46;22.90;94.70
51619;DHT22;38518;53.164;5.430;2022-09-12T09:01:30;23.20;92.60
51619;DHT22;38518;53.164;5.430;2022-09-12T09:15:24;25.20;28.80
51619;DHT22;38518;53.164;5.430;2022-09-12T09:18:10;25.40;6.80
51619;DHT22;38518;53.164;5.430;2022-09-12T09:20:53;25.50;3.50
51619;DHT22;38518;53.164;5.430;2022-09-12T09:23:50;25.40;4.70
51619;DHT22;38518;53.164;5.430;2022-09-12T09:26:39;25.20;1.00
51619;DHT22;38518;53.164;5.430;2022-09-12T09:29:24;24.90;1.00
51619;DHT22;38518;53.164;5.430;2022-09-12T09:31:54;25.20;1.00
51619;DHT22;38518;53.164;5.430;2022-09-12T09:34:30;25.40;1.00
51619;DHT22;38518;53.164;5.430;2022-09-12T09:44:52;26.60;1.00
51619;DHT22;38518;53.164;5.430;2022-09-12T09:47:20;27.20;1.00
51619;DHT22;38518;53.164;5.430;2022-09-12T09:49:46;27.60;1.00
51619;DHT22;38518;53.164;5.430;2022-09-12T09:52:16;28.10;1.00
51619;DHT22;38518;53.164;5.430;2022-09-12T09:54:48;28.40;1.00
51619;DHT22;38518;53.164;5.430;2022-09-12T10:00:20;28.70;1.00
51619;DHT22;38518;53.164;5.430;2022-09-12T10:05:28;29.20;1.00
51619;DHT22;38518;53.164;5.430;2022-09-12T10:07:54;29.30;1.00
51619;DHT22;38518;53.164;5.430;2022-09-12T10:10:21;29.50;1.00
51619;DHT22;38518;53.164;5.430;2022-09-12T10:12:48;29.80;1.00
51619;DHT22;38518;53.164;5.430;2022-09-12T10:15:19;29.90;1.00
51619;DHT22;38518;53.164;5.430;2022-09-12T10:17:48;30.20;1.00
51619;DHT22;38518;53.164;5.430;2022-09-12T10:20:34;30.40;1.00
51619;DHT22;38518;53.164;5.430;2022-09-12T10:23:34;30.60;1.00
51619;DHT22;38518;53.164;5.430;2022-09-12T10:26:04;30.70;1.00
51619;DHT22;38518;53.164;5.430;2022-09-12T10:28:37;30.70;1.00
51619;DHT22;38518;53.164;5.430;2022-09-12T10:31:08;30.90;1.00
51619;DHT22;38518;53.164;5.430;2022-09-12T10:33:45;31.10;1.00
51619;DHT22;38518;53.164;5.430;2022-09-12T10:36:12;31.20;1.00
51619;DHT22;38518;53.164;5.430;2022-09-12T10:38:48;31.40;1.00
51619;DHT22;38518;53.164;5.430;2022-09-12T10:41:14;31.20;1.00
51619;DHT22;38518;53.164;5.430;2022-09-12T10:43:43;30.90;1.00
51619;DHT22;38518;53.164;5.430;2022-09-12T10:46:21;30.30;1.00
51619;DHT22;38518;53.164;5.430;2022-09-12T10:49:13;29.70;1.00
51619;DHT22;38518;53.164;5.430;2022-09-12T10:51:39;29.00;1.00
51619;DHT22;38518;53.164;5.430;2022-09-12T10:54:07;28.50;1.00
51619;DHT22;38518;53.164;5.430;2022-09-12T11:07:46;28.10;1.00
51619;DHT22;38518;53.164;5.430;2022-09-12T11:10:24;28.10;1.00
51619;DHT22;38518;53.164;5.430;2022-09-12T11:18:28;28.00;1.00
51619;DHT22;38518;53.164;5.430;2022-09-12T11:24:00;27.40;1.00
51619;DHT22;38518;53.164;5.430;2022-09-12T11:32:46;27.40;1.00
51619;DHT22;38518;53.164;5.430;2022-09-12T11:35:24;27.50;1.00
51619;DHT22;38518;53.164;5.430;2022-09-12T11:38:22;27.30;1.00
51619;DHT22;38518;53.164;5.430;2022-09-12T11:41:02;27.10;1.00
51619;DHT22;38518;53.164;5.430;2022-09-12T11:46:30;27.20;1.00
51619;DHT22;38518;53.164;5.430;2022-09-12T11:49:00;27.40;1.00
51619;DHT22;38518;53.164;5.430;2022-09-12T11:54:10;27.90;1.00
51619;DHT22;38518;53.164;5.430;2022-09-12T11:56:42;27.80;1.00
51619;DHT22;38518;53.164;5.430;2022-09-12T11:59:18;27.70;1.00
51619;DHT22;38518;53.164;5.430;2022-09-12T12:01:50;27.90;1.00
51619;DHT22;38518;53.164;5.430;2022-09-12T12:04:23;28.60;1.00
51619;DHT22;38518;53.164;5.430;2022-09-12T12:07:00;29.20;1.00
51619;DHT22;38518;53.164;5.430;2022-09-12T12:09:27;29.80;1.00
51619;DHT22;38518;53.164;5.430;2022-09-12T12:11:55;30.30;1.00
51619;DHT22;38518;53.164;5.430;2022-09-12T12:14:49;30.70;1.00
51619;DHT22;38518;53.164;5.430;2022-09-12T12:17:18;30.80;1.00
51619;DHT22;38518;53.164;5.430;2022-09-12T12:19:46;31.00;1.00
51619;DHT22;38518;53.164;5.430;2022-09-12T12:22:23;31.10;1.00
51619;DHT22;38518;53.164;5.430;2022-09-12T12:27:55;30.60;1.00
51619;DHT22;38518;53.164;5.430;2022-09-12T12:35:42;30.10;1.00
51619;DHT22;38518;53.164;5.430;2022-09-12T12:38:33;30.10;1.00
51619;DHT22;38518;53.164;5.430;2022-09-12T12:43:52;30.20;1.00
51619;DHT22;38518;53.164;5.430;2022-09-12T12:46:20;30.20;1.00
51619;DHT22;38518;53.164;5.430;2022-09-12T12:53:49;30.40;1.00
51619;DHT22;38518;53.164;5.430;2022-09-12T12:59:18;30.60;1.00
51619;DHT22;38518;53.164;5.430;2022-09-12T13:01:51;30.70;1.00
51619;DHT22;38518;53.164;5.430;2022-09-12T13:04:21;30.50;1.00
51619;DHT22;38518;53.164;5.430;2022-09-12T13:07:06;30.50;1.00
51619;DHT22;38518;53.164;5.430;2022-09-12T13:09:46;30.00;1.00
51619;DHT22;38518;53.164;5.430;2022-09-12T13:12:18;29.80;1.00
51619;DHT22;38518;53.164;5.430;2022-09-12T13:17:31;29.60;1.00
51619;DHT22;38518;53.164;5.430;2022-09-12T13:22:49;29.60;1.00
51619;DHT22;38518;53.164;5.430;2022-09-12T13:25:36;29.70;1.00
51619;DHT22;38518;53.164;5.430;2022-09-12T13:28:03;29.90;1.00
51619;DHT22;38518;53.164;5.430;2022-09-12T13:30:36;30.00;1.00
51619;DHT22;38518;53.164;5.430;2022-09-12T13:33:17;29.90;1.00
51619;DHT22;38518;53.164;5.430;2022-09-12T13:44:08;29.20;1.00
51619;DHT22;38518;53.164;5.430;2022-09-12T13:46:38;28.80;1.00
51619;DHT22;38518;53.164;5.430;2022-09-12T13:49:28;28.70;1.00
51619;DHT22;38518;53.164;5.430;2022-09-12T13:54:43;28.70;1.00
51619;DHT22;38518;53.164;5.430;2022-09-12T13:57:29;28.90;1.00
51619;DHT22;38518;53.164;5.430;2022-09-12T13:59:57;28.90;1.00
51619;DHT22;38518;53.164;5.430;2022-09-12T14:02:27;28.80;1.00
51619;DHT22;38518;53.164;5.430;2022-09-12T14:04:54;28.80;1.00
51619;DHT22;38518;53.164;5.430;2022-09-12T14:07:44;28.90;1.00
51619;DHT22;38518;53.164;5.430;2022-09-12T14:10:31;29.20;1.00
51619;DHT22;38518;53.164;5.430;2022-09-12T14:13:09;29.30;1.00
51619;DHT22;38518;53.164;5.430;2022-09-12T14:15:36;29.20;1.00
51619;DHT22;38518;53.164;5.430;2022-09-12T14:18:04;28.90;1.00
51619;DHT22;38518;53.164;5.430;2022-09-12T14:20:35;28.70;1.00
51619;DHT22;38518;53.164;5.430;2022-09-12T14:25:39;29.00;1.00
51619;DHT22;38518;53.164;5.430;2022-09-12T14:28:05;29.10;1.00
51619;DHT22;38518;53.164;5.430;2022-09-12T14:30:35;29.00;1.00
51619;DHT22;38518;53.164;5.430;2022-09-12T14:35:38;29.40;1.00
51619;DHT22;38518;53.164;5.430;2022-09-12T14:40:58;28.80;1.00
51619;DHT22;38518;53.164;5.430;2022-09-12T14:45:55;28.40;1.00
51619;DHT22;38518;53.164;5.430;2022-09-12T14:48:25;28.10;1.00
51619;DHT22;38518;53.164;5.430;2022-09-12T14:50:52;28.50;1.00
51619;DHT22;38518;53.164;5.430;2022-09-12T14:55:49;27.90;1.00
51619;DHT22;38518;53.164;5.430;2022-09-12T15:06:02;27.80;1.00
51619;DHT22;38518;53.164;5.430;2022-09-12T15:08:29;28.10;1.00
51619;DHT22;38518;53.164;5.430;2022-09-12T15:10:56;28.00;1.00
51619;DHT22;38518;53.164;5.430;2022-09-12T15:13:24;28.00;1.00
51619;DHT22;38518;53.164;5.430;2022-09-12T15:15:55;27.80;1.00
51619;DHT22;38518;53.164;5.430;2022-09-12T15:18:26;27.40;1.00
51619;DHT22;38518;53.164;5.430;2022-09-12T15:21:03;26.90;1.00
51619;DHT22;38518;53.164;5.430;2022-09-12T15:23:36;26.50;1.00
51619;DHT22;38518;53.164;5.430;2022-09-12T15:26:05;26.20;1.00
51619;DHT22;38518;53.164;5.430;2022-09-12T15:28:31;25.90;1.00
51619;DHT22;38518;53.164;5.430;2022-09-12T15:31:02;26.20;1.00
51619;DHT22;38518;53.164;5.430;2022-09-12T15:33:29;26.30;1.00
51619;DHT22;38518;53.164;5.430;2022-09-12T15:35:55;26.20;1.00
51619;DHT22;38518;53.164;5.430;2022-09-12T15:38:20;26.10;1.00
51619;DHT22;38518;53.164;5.430;2022-09-12T15:40:49;26.10;1.00
51619;DHT22;38518;53.164;5.430;2022-09-12T15:43:18;25.90;1.00
51619;DHT22;38518;53.164;5.430;2022-09-12T15:45:45;25.70;1.00
51619;DHT22;38518;53.164;5.430;2022-09-12T15:48:11;25.80;1.00
51619;DHT22;38518;53.164;5.430;2022-09-12T15:50:39;25.90;1.00
51619;DHT22;38518;53.164;5.430;2022-09-12T15:53:05;26.10;1.00
51619;DHT22;38518;53.164;5.430;2022-09-12T15:55:31;26.20;1.00
51619;DHT22;38518;53.164;5.430;2022-09-12T15:57:57;26.40;1.00
51619;DHT22;38518;53.164;5.430;2022-09-12T16:00:24;26.30;1.00
51619;DHT22;38518;53.164;5.430;2022-09-12T16:02:52;26.10;1.00
51619;DHT22;38518;53.164;5.430;2022-09-12T16:05:23;26.10;1.00
51619;DHT22;38518;53.164;5.430;2022-09-12T16:07:51;25.90;1.00
51619;DHT22;38518;53.164;5.430;2022-09-12T16:10:23;25.60;1.00
51619;DHT22;38518;53.164;5.430;2022-09-12T16:12:50;25.20;1.00
51619;DHT22;38518;53.164;5.430;2022-09-12T16:15:21;25.00;1.00
51619;DHT22;38518;53.164;5.430;2022-09-12T16:17:48;24.70;1.00
51619;DHT22;38518;53.164;5.430;2022-09-12T16:20:14;24.60;1.00
51619;DHT22;38518;53.164;5.430;2022-09-12T16:22:41;24.30;1.00
51619;DHT22;38518;53.164;5.430;2022-09-12T16:25:07;24.00;1.00
51619;DHT22;38518;53.164;5.430;2022-09-12T16:27:34;23.90;1.00
51619;DHT22;38518;53.164;5.430;2022-09-12T16:29:59;23.80;1.00
51619;DHT22;38518;53.164;5.430;2022-09-12T16:32:25;23.50;1.00
51619;DHT22;38518;53.164;5.430;2022-09-12T16:34:51;23.30;1.00
51619;DHT22;38518;53.164;5.430;2022-09-12T16:37:17;23.20;1.00
51619;DHT22;38518;53.164;5.430;2022-09-12T16:39:43;23.10;1.00
51619;DHT22;38518;53.164;5.430;2022-09-12T16:42:09;23.00;1.00
51619;DHT22;38518;53.164;5.430;2022-09-12T16:44:35;22.90;1.00
51619;DHT22;38518;53.164;5.430;2022-09-12T16:47:01;22.90;1.00
51619;DHT22;38518;53.164;5.430;2022-09-12T16:49:26;22.80;1.00
51619;DHT22;38518;53.164;5.430;2022-09-12T16:51:52;22.70;1.00
51619;DHT22;38518;53.164;5.430;2022-09-12T16:54:18;22.60;1.00
51619;DHT22;38518;53.164;5.430;2022-09-12T16:56:44;22.50;1.00
51619;DHT22;38518;53.164;5.430;2022-09-12T16:59:11;22.40;1.00
51619;DHT22;38518;53.164;5.430;2022-09-12T17:01:41;22.30;1.00
51619;DHT22;38518;53.164;5.430;2022-09-12T17:04:09;22.30;1.00
51619;DHT22;38518;53.164;5.430;2022-09-12T17:06:35;22.20;1.00
51619;DHT22;38518;53.164;5.430;2022-09-12T17:09:02;22.20;1.00
51619;DHT22;38518;53.164;5.430;2022-09-12T17:11:34;22.20;1.00
51619;DHT22;38518;53.164;5.430;2022-09-12T17:14:02;22.10;1.00
51619;DHT22;38518;53.164;5.430;2022-09-12T17:16:29;22.00;1.00
51619;DHT22;38518;53.164;5.430;2022-09-12T17:18:55;22.00;4.80
51619;DHT22;38518;53.164;5.430;2022-09-12T17:21:21;22.00;5.20
51619;DHT22;38518;53.164;5.430;2022-09-12T17:23:47;22.00;5.90
51619;DHT22;38518;53.164;5.430;2022-09-12T17:26:13;21.90;9.20
51619;DHT22;38518;53.164;5.430;2022-09-12T17:28:39;21.90;10.50
51619;DHT22;38518;53.164;5.430;2022-09-12T17:31:08;21.80;12.90
51619;DHT22;38518;53.164;5.430;2022-09-12T17:33:34;21.80;14.70
51619;DHT22;38518;53.164;5.430;2022-09-12T17:36:02;21.70;16.30
51619;DHT22;38518;53.164;5.430;2022-09-12T17:38:31;21.70;20.80
51619;DHT22;38518;53.164;5.430;2022-09-12T17:41:22;21.70;20.90
51619;DHT22;38518;53.164;5.430;2022-09-12T17:43:54;21.60;22.10
51619;DHT22;38518;53.164;5.430;2022-09-12T17:46:25;21.60;28.20
51619;DHT22;38518;53.164;5.430;2022-09-12T17:48:55;21.50;31.90
51619;DHT22;38518;53.164;5.430;2022-09-12T17:51:23;21.50;33.90
51619;DHT22;38518;53.164;5.430;2022-09-12T17:54:03;21.50;38.40
51619;DHT22;38518;53.164;5.430;2022-09-12T17:56:32;21.40;42.00
51619;DHT22;38518;53.164;5.430;2022-09-12T17:58:59;21.40;41.70
51619;DHT22;38518;53.164;5.430;2022-09-12T18:01:25;21.40;41.60
51619;DHT22;38518;53.164;5.430;2022-09-12T18:04:10;21.30;43.50
51619;DHT22;38518;53.164;5.430;2022-09-12T18:06:36;21.30;45.80
51619;DHT22;38518;53.164;5.430;2022-09-12T18:09:04;21.20;47.80
51619;DHT22;38518;53.164;5.430;2022-09-12T18:11:31;21.20;47.20
51619;DHT22;38518;53.164;5.430;2022-09-12T18:13:58;21.20;51.00
51619;DHT22;38518;53.164;5.430;2022-09-12T18:16:24;21.20;54.00
51619;DHT22;38518;53.164;5.430;2022-09-12T18:18:50;21.20;60.60
51619;DHT22;38518;53.164;5.430;2022-09-12T18:21:16;21.20;64.90
51619;DHT22;38518;53.164;5.430;2022-09-12T18:23:42;21.10;71.60
51619;DHT22;38518;53.164;5.430;2022-09-12T18:26:09;21.00;91.50
51619;DHT22;38518;53.164;5.430;2022-09-12T18:28:39;20.90;95.50
51619;DHT22;38518;53.164;5.430;2022-09-12T18:31:16;20.80;99.90
51619;DHT22;38518;53.164;5.430;2022-09-12T18:33:42;20.70;99.90
51619;DHT22;38518;53.164;5.430;2022-09-12T18:36:10;20.70;99.90
51619;DHT22;38518;53.164;5.430;2022-09-12T18:38:36;20.60;99.90
51619;DHT22;38518;53.164;5.430;2022-09-12T18:41:04;20.50;99.90
51619;DHT22;38518;53.164;5.430;2022-09-12T18:43:30;20.40;99.90
51619;DHT22;38518;53.164;5.430;2022-09-12T18:45:56;20.40;99.90
51619;DHT22;38518;53.164;5.430;2022-09-12T18:48:26;20.30;99.90